^^
Station Historical Data
Daily Summary for January 21, 2018 Units:  Metric    English   Both
« Previous Day
Next Day »
Daily Weekly Monthly Yearly Custom
  High: Low: Average:
Temperature: -17.8 °C 19.2 °C 23.9 °C
Dew Point: -17.8 °C 3.9 °C 10.1 °C
Humidity: Humidity% 21% 43%
Wind Speed: 0km/h 0km/h 11.6km/h
Wind Gust: 0km/h - -
Wind- - SSW
Pressure: 0 hPa 1001.6 hPa -
Precipitation: 0 mm    
Historical Graphs
 
 
Tabular Data for January 21, 2018
Time Temperature Dew Point Pressure Wind Wind Speed Wind Gust Humidity Rainfall Rate (Hourly) solar Conditions
-17.8 °C -17.8 °C 0 hPa Calm     Humidity% 0 mm SolarRadiationWatts/m^2 W/m2 Conditions
00:08 23.7 °C 11.7 °C 1003.9 hPa SW 14.3 km/h 19.3 km/h 47% 0 mm 0.0 W/m2
00:14 23.6 °C 11.6 °C 1003.9 hPa SSW 9.7 km/h 19.3 km/h 47% 0 mm 0.0 W/m2
00:19 23.5 °C 11.5 °C 1003.9 hPa SW 14.3 km/h 17.7 km/h 47% 0 mm 0.0 W/m2
00:24 23.4 °C 11.4 °C 1003.9 hPa SW 11.1 km/h 16.1 km/h 47% 0 mm 0.0 W/m2
00:34 23.5 °C 11.5 °C 1004.3 hPa SW 6.4 km/h 14.5 km/h 47% 0 mm 0.0 W/m2
00:44 23.6 °C 11 °C 1004.6 hPa SSW 13 km/h 17.7 km/h 45% 0 mm 0.0 W/m2
00:50 23.7 °C 10.4 °C 1004.6 hPa SSW 11.1 km/h 14.5 km/h 43% 0 mm 0.0 W/m2
00:55 23.8 °C 10.1 °C 1004.6 hPa South 14.3 km/h 17.7 km/h 42% 0 mm 0.0 W/m2
01:04 23.9 °C 9.1 °C 1004.6 hPa South 16.3 km/h 17.7 km/h 39% 0 mm 0.0 W/m2
01:10 23.9 °C 9.1 °C 1004.6 hPa South 11.1 km/h 17.7 km/h 39% 0 mm 0.0 W/m2
01:20 23.9 °C 9.1 °C 1004.6 hPa South 11.1 km/h 14.5 km/h 39% 0 mm 0.0 W/m2
01:30 24 °C 8.4 °C 1004.3 hPa South 9.7 km/h 12.9 km/h 37% 0 mm 0.0 W/m2
01:40 24.1 °C 8.1 °C 1004.6 hPa South 7.9 km/h 9.7 km/h 36% 0 mm 0.0 W/m2
01:50 24.2 °C 8.2 °C 1004.6 hPa South 6.4 km/h 11.3 km/h 36% 0 mm 0.0 W/m2
02:00 24.2 °C 7.3 °C 1004.6 hPa SSE 9.7 km/h 11.3 km/h 34% 0 mm 0.0 W/m2
02:05 24.1 °C 7.7 °C 1004.6 hPa SSE 3.2 km/h 9.7 km/h 35% 0 mm 0.0 W/m2
02:10 24.1 °C 8.1 °C 1004.6 hPa Calm   3.2 km/h 36% 0 mm 0.0 W/m2
02:15 24 °C 5.8 °C 1004.3 hPa SSE 7.9 km/h 12.9 km/h 31% 0 mm 0.0 W/m2
02:25 24.1 °C 5 °C 1003.9 hPa SSE 9.7 km/h 11.3 km/h 29% 0 mm 0.0 W/m2
02:30 24.1 °C 4.5 °C 1003.9 hPa SSE 9.7 km/h 12.9 km/h 28% 0 mm 0.0 W/m2
02:40 24.1 °C 3.9 °C 1003.9 hPa South 7.9 km/h 11.3 km/h 27% 0 mm 0.0 W/m2
02:45 23.9 °C 5.3 °C 1003.9 hPa South 6.4 km/h 9.7 km/h 30% 0 mm 0.0 W/m2
02:51 23.5 °C 8 °C 1003.9 hPa South 7.9 km/h 9.7 km/h 37% 0 mm 0.0 W/m2
02:56 23.1 °C 8.4 °C 1003.9 hPa South 9.7 km/h 12.9 km/h 39% 0 mm 0.0 W/m2
03:06 22.6 °C 9.4 °C 1003.9 hPa South 13 km/h 13 km/h 43% 0 mm 0.0 W/m2
03:16 22.1 °C 9.9 °C 1003.9 hPa SSW 7.9 km/h 14.5 km/h 46% 0 mm 0.0 W/m2
03:21 22 °C 10.2 °C 1003.9 hPa SSW 11.1 km/h 12.9 km/h 47% 0 mm 0.0 W/m2
03:26 21.9 °C 10.1 °C 1003.9 hPa SSW 7.9 km/h 11.3 km/h 47% 0 mm 0.0 W/m2
03:36 21.6 °C 11 °C 1003.6 hPa SSW 13 km/h 19.3 km/h 51% 0 mm 0.0 W/m2
03:41 21.4 °C 10.8 °C 1003.6 hPa SSW 9.7 km/h 17.7 km/h 51% 0 mm 0.0 W/m2
03:46 21.3 °C 11 °C 1003.6 hPa SSW 11.1 km/h 17.7 km/h 52% 0 mm 0.0 W/m2
03:56 21.3 °C 10.8 °C 1003.6 hPa SW 11.1 km/h 16.1 km/h 51% 0 mm 0.0 W/m2
04:06 21.2 °C 11.2 °C 1003.6 hPa SW 16.3 km/h 17.7 km/h 53% 0 mm 0.0 W/m2
04:11 21.2 °C 11.2 °C 1003.6 hPa SW 11.1 km/h 16.1 km/h 53% 0 mm 0.0 W/m2
04:16 21.1 °C 11.1 °C 1003.6 hPa SW 14.3 km/h 17.7 km/h 53% 0 mm 0.0 W/m2
04:26 21.1 °C 11.1 °C 1003.3 hPa SW 11.1 km/h 16.1 km/h 53% 0 mm 0.0 W/m2
04:31 21.1 °C 11.1 °C 1003.3 hPa SW 13 km/h 16.1 km/h 53% 0 mm 0.0 W/m2
04:36 21.1 °C 11.4 °C 1003.3 hPa SW 11.1 km/h 19.3 km/h 54% 0 mm 0.0 W/m2
04:41 21 °C 11.6 °C 1003.3 hPa SW 14.3 km/h 16.1 km/h 55% 0 mm 0.0 W/m2
04:46 20.9 °C 11.5 °C 1003.3 hPa SW 14.3 km/h 17.7 km/h 55% 0 mm 0.0 W/m2
04:51 20.8 °C 11.4 °C 1003.6 hPa SW 13 km/h 13 km/h 55% 0 mm 0.0 W/m2
04:57 20.7 °C 12.1 °C 1003.3 hPa SW 11.1 km/h 12.9 km/h 58% 0 mm 0.0 W/m2
05:02 20.6 °C 12 °C 1003.3 hPa SW 11.1 km/h 11.3 km/h 58% 0 mm 0.0 W/m2
05:07 20.4 °C 12.1 °C 1003.3 hPa SW 11.1 km/h 14.5 km/h 59% 0 mm 0.0 W/m2
05:12 20.4 °C 11.9 °C 1002.9 hPa SW 11.1 km/h 16.1 km/h 58% 0 mm 0.0 W/m2
05:22 20.3 °C 12 °C 1003.3 hPa SW 9.7 km/h 12.9 km/h 59% 0 mm 0.0 W/m2
05:27 20.2 °C 12.4 °C 1003.3 hPa SW 14.3 km/h 16.1 km/h 61% 0 mm 0.0 W/m2
05:32 19.9 °C 12.6 °C 1003.3 hPa SW 13 km/h 16.1 km/h 63% 0 mm 0.0 W/m2
05:37 19.7 °C 12.7 °C 1002.9 hPa SSW 13 km/h 19.3 km/h 64% 0 mm 0.0 W/m2
05:42 19.5 °C 12.5 °C 1002.9 hPa SSW 13 km/h 16.1 km/h 64% 0 mm 0.0 W/m2
05:47 19.4 °C 12.9 °C 1003.3 hPa SW 13 km/h 16.1 km/h 66% 0 mm 0.0 W/m2
05:57 19.3 °C 12.6 °C 1003.6 hPa SW 11.1 km/h 16.1 km/h 65% 0 mm 0.0 W/m2
06:02 19.3 °C 12.8 °C 1003.9 hPa SW 11.1 km/h 12.9 km/h 66% 0 mm 0.0 W/m2
06:07 19.2 °C 12.7 °C 1003.9 hPa SW 9.7 km/h 12.9 km/h 66% 0 mm 0.0 W/m2
06:12 19.2 °C 12.9 °C 1003.9 hPa SW 6.4 km/h 9.7 km/h 67% 0 mm 0.0 W/m2
06:18 19.2 °C 12.9 °C 1003.9 hPa SW 4.7 km/h 6.4 km/h 67% 0 mm 5.0 W/m2
06:23 19.2 °C 12.9 °C 1003.9 hPa SW 7.9 km/h 8 km/h 67% 0 mm 7.0 W/m2
06:28 19.2 °C 12.7 °C 1003.9 hPa SW 7.9 km/h 11.3 km/h 66% 0 mm 7.0 W/m2
06:38 19.3 °C 12.6 °C 1002.9 hPa SW 3.2 km/h 9.7 km/h 65% 0 mm 12.0 W/m2
06:43 19.4 °C 12.7 °C 1002.9 hPa Calm     65% 0 mm 30.0 W/m2
06:53 19.8 °C 12.6 °C 1003.9 hPa WSW 11.1 km/h 20.9 km/h 63% 0 mm 42.0 W/m2
06:58 19.9 °C 12.6 °C 1004.3 hPa WSW 22.7 km/h 22.7 km/h 63% 0 mm 56.0 W/m2
07:04 19.9 °C 12.6 °C 1004.3 hPa WSW 9.7 km/h 12.9 km/h 63% 0 mm 70.0 W/m2
07:15 19.9 °C 12.4 °C 1002.9 hPa SSW 20.9 km/h 20.9 km/h 62% 0 mm 49.0 W/m2
07:22 19.9 °C 12.6 °C 1003.3 hPa SSW 6.4 km/h 14.5 km/h 63% 0 mm 44.0 W/m2
07:49 20.9 °C 10.7 °C 1004.3 hPa SW 7.9 km/h 12.9 km/h 52% 0 mm 299.0 W/m2
08:04 21.4 °C 10.8 °C 1004.3 hPa SW 7.9 km/h 9.7 km/h 51% 0 mm 246.0 W/m2
08:13 21.4 °C 11.4 °C 1003.9 hPa Calm     53% 0 mm 121.0 W/m2
08:23 21.4 °C 11.4 °C 1003.9 hPa Calm     53% 0 mm 111.0 W/m2
08:32 21.7 °C 11.4 °C 1003.9 hPa Calm     52% 0 mm 473.0 W/m2
08:55 23.1 °C 8.8 °C 1004.3 hPa Calm     40% 0 mm 139.0 W/m2
09:21 23.4 °C 10.5 °C 1003.9 hPa SW 6.4 km/h 8 km/h 44% 0 mm 193.0 W/m2
09:27 23.5 °C 10.2 °C 1003.9 hPa SW 4.7 km/h 6.4 km/h 43% 0 mm 332.0 W/m2
09:33 23.9 °C 10.9 °C 1003.9 hPa Calm     44% 0 mm 770.0 W/m2
09:45 24.3 °C 10.6 °C 1003.9 hPa Calm     42% 0 mm 125.0 W/m2
09:55 24.7 °C 6.9 °C 1004.6 hPa Calm     32% 0 mm 100.0 W/m2
10:42 26.4 °C 8.8 °C 1005 hPa SW 7.9 km/h 14.5 km/h 33% 0 mm 524.0 W/m2
10:47 26.7 °C 10 °C 1004.6 hPa SW 16.3 km/h 19.3 km/h 35% 0 mm 462.0 W/m2
10:52 26.4 °C 9.7 °C 1004.6 hPa SW 14.3 km/h 16.1 km/h 35% 0 mm 1028.0 W/m2
10:57 26.5 °C 9.4 °C 1004.6 hPa SW 7.9 km/h 12.9 km/h 34% 0 mm 1090.0 W/m2
11:02 26.8 °C 9.6 °C 1004.6 hPa SW 14.3 km/h 17.7 km/h 34% 0 mm 1090.0 W/m2
11:12 27.3 °C 8.2 °C 1004.6 hPa SW 4.7 km/h 11.3 km/h 30% 0 mm 1030.0 W/m2
11:17 27.8 °C 5.4 °C 1004.6 hPa Calm   1.6 km/h 24% 0 mm 306.0 W/m2
11:22 28.1 °C 6.2 °C 1005 hPa Calm     25% 0 mm 148.0 W/m2
11:28 28.1 °C 5.6 °C 1005.6 hPa SW 11.1 km/h 20.9 km/h 24% 0 mm 100.0 W/m2
11:33 28.3 °C 6.4 °C 1005.6 hPa SW 17.7 km/h 17.7 km/h 25% 0 mm 95.0 W/m2
11:58 26.7 °C 10.8 °C 1003.9 hPa SW 17.7 km/h 17.7 km/h 37% 0 mm 443.0 W/m2
12:12 27.1 °C 10.3 °C 1004.6 hPa SW 7.9 km/h 11.3 km/h 35% 0 mm 171.0 W/m2
12:23 27.6 °C 10.3 °C 1004.3 hPa SW 3.2 km/h 8 km/h 34% 0 mm 188.0 W/m2
12:36 27.7 °C 12.1 °C 1004.3 hPa Calm     38% 0 mm 288.0 W/m2
12:47 27.9 °C 11.4 °C 1003.9 hPa Calm     36% 0 mm 144.0 W/m2
13:53 32.4 °C 8 °C 1002.6 hPa Calm     22% 0 mm 255.0 W/m2
14:14 32.4 °C 7.3 °C 1002.9 hPa SW 9.7 km/h 11.3 km/h 21% 0 mm 396.0 W/m2
14:26 30.8 °C 10.2 °C 1002.9 hPa SW 17.7 km/h 24.1 km/h 28% 0 mm 369.0 W/m2
14:39 29.5 °C 10.6 °C 1002.9 hPa SW 16.3 km/h 25.7 km/h 31% 0 mm 826.0 W/m2
14:51 29.6 °C 10.2 °C 1002.9 hPa SW 20.9 km/h 27.4 km/h 30% 0 mm 350.0 W/m2
15:05 29.3 °C 9.9 °C 1002.6 hPa SW 11.1 km/h 16.1 km/h 30% 0 mm 283.0 W/m2
15:16 29.7 °C 9.8 °C 1002.9 hPa SW 4.7 km/h 9.7 km/h 29% 0 mm 320.0 W/m2
15:29 30 °C 9.5 °C 1002.6 hPa SW 13 km/h 16.1 km/h 28% 0 mm 292.0 W/m2
15:38 29.7 °C 9.8 °C 1002.3 hPa SSW 14.3 km/h 17.7 km/h 29% 0 mm 237.0 W/m2
16:05 29.6 °C 9.7 °C 1001.9 hPa SSW 19.5 km/h 20.9 km/h 29% 0 mm 232.0 W/m2
16:29 29.2 °C 9.3 °C 1001.9 hPa South 14.3 km/h 19.3 km/h 29% 0 mm 193.0 W/m2
16:35 29.2 °C 9.3 °C 1001.9 hPa South 14.3 km/h 20.9 km/h 29% 0 mm 163.0 W/m2
16:45 29.5 °C 9.6 °C 1001.6 hPa SSW 24.1 km/h 25.7 km/h 29% 0 mm 225.0 W/m2
17:01 29.9 °C 9.4 °C 1001.6 hPa SSW 24.1 km/h 32.2 km/h 28% 0 mm 169.0 W/m2
17:08 29.8 °C 10.4 °C 1001.9 hPa SW 20.9 km/h 27.4 km/h 30% 0 mm 206.0 W/m2
17:18 29.8 °C 10.4 °C 1001.9 hPa SW 24.1 km/h 29 km/h 30% 0 mm 605.0 W/m2
17:23 30 °C 10 °C 1001.9 hPa SSW 19.5 km/h 27.4 km/h 29% 0 mm 478.0 W/m2
17:33 29.9 °C 9.4 °C 1001.6 hPa SSW 20.9 km/h 27.4 km/h 28% 0 mm 434.0 W/m2
17:39 30.2 °C 9.7 °C 1001.6 hPa SSW 17.7 km/h 22.5 km/h 28% 0 mm 483.0 W/m2
17:45 30.3 °C 8.7 °C 1001.6 hPa SSW 13 km/h 19.3 km/h 26% 0 mm 127.0 W/m2
19:02 28.1 °C 8.9 °C 1002.9 hPa SSW 24.1 km/h 30.6 km/h 30% 0 mm 42.0 W/m2
19:10 27.6 °C 8.9 °C 1002.6 hPa SSW 25.9 km/h 35.4 km/h 31% 0 mm 42.0 W/m2
19:13 27.4 °C 8.8 °C 1002.9 hPa SSW 27.4 km/h 30.6 km/h 31% 0 mm 39.0 W/m2
19:26 27.2 °C 9.5 °C 1002.9 hPa SSW 24.1 km/h 30.6 km/h 33% 0 mm 25.0 W/m2
19:36 27 °C 9.8 °C 1003.6 hPa SSW 24.1 km/h 27.4 km/h 34% 0 mm 5.0 W/m2
19:46 26.6 °C 10.3 °C 1003.6 hPa South 17.7 km/h 27.4 km/h 36% 0 mm 0.0 W/m2
19:55 26.3 °C 10.4 °C 1003.9 hPa South 17.7 km/h 17.7 km/h 37% 0 mm 0.0 W/m2
20:03 26 °C 11 °C 1003.9 hPa South 17.7 km/h 24.1 km/h 39% 0 mm 0.0 W/m2
20:09 25.7 °C 11.8 °C 1004.3 hPa South 16.3 km/h 22.5 km/h 42% 0 mm 0.0 W/m2
20:14 25.4 °C 11.6 °C 1004.6 hPa South 13 km/h 20.9 km/h 42% 0 mm 0.0 W/m2
20:25 25.1 °C 11.3 °C 1004.3 hPa South 19.5 km/h 24.1 km/h 42% 0 mm 0.0 W/m2
20:28 25 °C 11.6 °C 1004.3 hPa South 17.7 km/h 20.9 km/h 43% 0 mm 0.0 W/m2
20:36 24.9 °C 11.5 °C 1004.6 hPa SSW 22.7 km/h 25.7 km/h 43% 0 mm 0.0 W/m2
20:47 24.7 °C 11.3 °C 1005.3 hPa SSW 13 km/h 19.3 km/h 43% 0 mm 0.0 W/m2
20:54 24.6 °C 11.2 °C 1005.3 hPa SSW 20.9 km/h 22.5 km/h 43% 0 mm 0.0 W/m2
21:14 24.3 °C 11.3 °C 1005.6 hPa South 16.3 km/h 20.9 km/h 44% 0 mm 0.0 W/m2
21:29 24 °C 11.3 °C 1006 hPa South 19.5 km/h 20.9 km/h 45% 0 mm 0.0 W/m2
21:59 23.6 °C 11.9 °C 1006.7 hPa South 14.3 km/h 20.9 km/h 48% 0 mm 0.0 W/m2
22:14 23.2 °C 12.2 °C 1007 hPa SSE 19.5 km/h 22.5 km/h 50% 0 mm 0.0 W/m2
22:35 22.7 °C 12.6 °C 1006.7 hPa SSE 14.3 km/h 22.5 km/h 53% 0 mm 0.0 W/m2
22:49 22.7 °C 12.3 °C 1006.7 hPa SSE 13 km/h 13 km/h 52% 0 mm 0.0 W/m2
22:58 22.7 °C 13.2 °C 1007 hPa SSE 7.9 km/h 12.9 km/h 55% 0 mm 0.0 W/m2
Canyon Roadhouse, Fishriver Canyon, Namibia
Compliments of Weather Underground - 2.25 mb